Estación de Trinidad
Ultimos registro cada 15 minutos 38
| N° | Estación | Fecha / Hora | Temperatura | Humedad | Lluvia | Velocidad | Dirección | Radiación | Presion |
| 38 | Trinidad | 02-05-2026 09:15 | 8 | 85 | 0 | 0 | 150 | 223 | 1021,2 |
| 37 | Trinidad | 02-05-2026 09:00 | 7,4 | 86 | 0 | 0 | 150 | 37 | 1021 |
| 36 | Trinidad | 02-05-2026 08:45 | 6,8 | 87 | 0 | 0 | 150 | 200 | 1021,4 |
| 35 | Trinidad | 02-05-2026 08:30 | 6,3 | 90 | 0 | 0,4 | 150 | 146 | 1021,3 |
| 34 | Trinidad | 02-05-2026 08:15 | 5,4 | 92 | 0 | 0 | 150 | 76 | 1021,3 |
| 33 | Trinidad | 02-05-2026 08:00 | 4,8 | 91 | 0 | 0 | 150 | 21 | 1021,3 |
| 32 | Trinidad | 02-05-2026 07:45 | 4,6 | 90 | 0 | 0 | 150 | 14 | 1021,1 |
| 31 | Trinidad | 02-05-2026 07:30 | 4,7 | 90 | 0 | 0 | 150 | 5 | 1021,1 |
| 30 | Trinidad | 02-05-2026 07:15 | 4,7 | 90 | 0 | 0 | 150 | 0 | 1020,9 |
| 29 | Trinidad | 02-05-2026 07:00 | 4,9 | 89 | 0 | 0 | 150 | 0 | 1020,9 |
| 28 | Trinidad | 02-05-2026 06:45 | 5,2 | 89 | 0 | 0 | 150 | 0 | 1020,8 |
| 27 | Trinidad | 02-05-2026 06:30 | 5,5 | 89 | 0 | 0 | 150 | 0 | 1021 |
| 26 | Trinidad | 02-05-2026 06:15 | 5,7 | 89 | 0 | 0,4 | 151 | 0 | 1020,9 |
| 25 | Trinidad | 02-05-2026 06:00 | 5,9 | 89 | 0 | 0 | 151 | 0 | 1021 |
| 24 | Trinidad | 02-05-2026 05:45 | 5,8 | 89 | 0 | 0 | 151 | 0 | 1021 |
| 23 | Trinidad | 02-05-2026 05:30 | 5,9 | 89 | 0 | 0 | 151 | 0 | 1021 |
| 22 | Trinidad | 02-05-2026 05:15 | 5,9 | 88 | 0 | 0,4 | 151 | 0 | 1021,2 |
| 21 | Trinidad | 02-05-2026 05:00 | 6,1 | 87 | 0 | 0 | 151 | 0 | 1021,2 |
| 20 | Trinidad | 02-05-2026 04:45 | 6,7 | 86 | 0 | 0 | 151 | 0 | 1021,3 |
| 19 | Trinidad | 02-05-2026 04:30 | 7,1 | 86 | 0 | 0 | 151 | 0 | 1021,3 |
| 18 | Trinidad | 02-05-2026 04:15 | 7,1 | 87 | 0 | 0 | 151 | 0 | 1021,5 |
| 17 | Trinidad | 02-05-2026 04:00 | 7,2 | 87 | 0 | 0,4 | 151 | 0 | 1021,7 |
| 16 | Trinidad | 02-05-2026 03:45 | 6,8 | 88 | 0 | 1,3 | 151 | 0 | 1021,7 |
| 15 | Trinidad | 02-05-2026 03:30 | 6,6 | 88 | 0 | 0 | 151 | 0 | 1021,9 |
| 14 | Trinidad | 02-05-2026 03:15 | 6,8 | 88 | 0 | 0 | 151 | 0 | 1022 |
| 13 | Trinidad | 02-05-2026 03:00 | 7,1 | 86 | 0 | 0 | 151 | 0 | 1022 |
| 12 | Trinidad | 02-05-2026 02:45 | 7,8 | 86 | 0 | 0 | 151 | 0 | 1022,2 |
| 11 | Trinidad | 02-05-2026 02:30 | 8,1 | 86 | 0 | 0 | 151 | 0 | 1022,4 |
| 10 | Trinidad | 02-05-2026 02:15 | 8,6 | 85 | 0 | 0 | 151 | 0 | 1022,5 |
| 9 | Trinidad | 02-05-2026 02:00 | 8,8 | 84 | 0 | 0 | 151 | 0 | 1022,5 |
| 8 | Trinidad | 02-05-2026 01:45 | 9,4 | 83 | 0 | 0 | 151 | 0 | 1022,4 |
| 7 | Trinidad | 02-05-2026 01:30 | 10 | 82 | 0 | 0 | 151 | 0 | 1022,4 |
| 6 | Trinidad | 02-05-2026 01:15 | 10,3 | 81 | 0 | 0,9 | 151 | 0 | 1022,7 |
| 5 | Trinidad | 02-05-2026 01:00 | 10,7 | 80 | 0 | 0,4 | 151 | 0 | 1022,8 |
| 4 | Trinidad | 02-05-2026 00:45 | 10,9 | 80 | 0 | 0,9 | 151 | 0 | 1023,1 |
| 3 | Trinidad | 02-05-2026 00:30 | 10,8 | 80 | 0 | 0,9 | 168 | 0 | 1023,3 |
| 2 | Trinidad | 02-05-2026 00:15 | 10,8 | 80 | 0 | 0,4 | 168 | 0 | 1023,5 |
| 1 | Trinidad | 02-05-2026 00:00 | 11 | 80 | 0 | 0,4 | 169 | 0 | 1023,5 |